KSWF/SWF METAR and TAF weather

Enter ICAO airport designator
Station Type Date Time Source
KSWF METAR 2020/03/28 13:45 UTC NOAA

KSWF 281345Z 10006KT 10SM BKN100 08/M02 A3014


Station Type Date Time Source
KSWF Decoded METAR 2020/03/28 13:45 UTC NOAA

Newburgh / Stewart, NY, United States (KSWF) 41-30N 074-06W
Mar 28, 2020 - 09:45 AM EDT / 2020.03.28 1345 UTC
Wind: from the E (100 degrees) at 7 MPH (6 KT):0
Visibility: 10 mile(s):0
Sky conditions: mostly cloudy
Temperature: 46 F (8 C)
Dew Point: 28 F (-2 C)
Relative Humidity: 49%
Pressure (altimeter): 30.14 in. Hg (1020 hPa)
ob: KSWF 281345Z 10006KT 10SM BKN100 08/M02 A3014
cycle: 14

Station Type Date Time Source
KSWF TAF 2020/03/28 12:42 UTC NOAA

TAF KSWF 281140Z 2812/2918 VRB02KT P6SM BKN100 BKN150
FM281400 14005KT P6SM VCSH SCT050 OVC100
FM281700 13008KT 6SM -RA BR SCT020 OVC035
FM282100 10007KT 2SM RA BR BKN010 OVC020
FM290000 10008KT 2SM RA BR OVC004
AMD NOT SKED

Example: see airport list